RAJ401 WARR-WIHH
Flight info
| Callsign | RAJ401 |
|---|---|
| Flight time | 1h 20m |
| Altitude | 36000 |
| Route | SBR LASEM W16 IMU HLP |
| Aircraft | A400/H-SDFGHIRWY/EB2 |
Departure
| Time | 2026-05-09 00:22 |
|---|---|
| Airport | Juanda International Airport (WARR) |
Arrival
| Time | 2026-05-09 01:43 |
|---|---|
| Airport | Halim Perdanakusuma International Airport (WIHH) |
| Time | Latitude | Longitude | Altitude | Speed | Heading |
|---|---|---|---|---|---|
| 2026-05-09 00:06 | -7.37501 | 112.78919 | 27 ft | 0 kts | 8° |
| 2026-05-09 00:11 | -7.37508 | 112.78918 | 27 ft | 3 kts | 8° |
| 2026-05-09 00:12 | -7.37526 | 112.78915 | 27 ft | 3 kts | 8° |
| 2026-05-09 00:12 | -7.37545 | 112.78912 | 27 ft | 3 kts | 8° |
| 2026-05-09 00:12 | -7.37563 | 112.78910 | 27 ft | 3 kts | 8° |
| 2026-05-09 00:12 | -7.37578 | 112.78908 | 27 ft | 0 kts | 8° |
| 2026-05-09 00:15 | -7.37577 | 112.78908 | 27 ft | 1 kts | 8° |
| 2026-05-09 00:15 | -7.37571 | 112.78902 | 27 ft | 1 kts | 308° |
| 2026-05-09 00:15 | -7.37571 | 112.78898 | 27 ft | 0 kts | 277° |
| 2026-05-09 00:16 | -7.37577 | 112.78887 | 27 ft | 4 kts | 249° |
| 2026-05-09 00:16 | -7.37579 | 112.78848 | 27 ft | 8 kts | 278° |
| 2026-05-09 00:16 | -7.37575 | 112.78782 | 28 ft | 11 kts | 253° |
| 2026-05-09 00:16 | -7.37631 | 112.78779 | 28 ft | 11 kts | 127° |
| 2026-05-09 00:17 | -7.37659 | 112.78866 | 27 ft | 15 kts | 115° |
| 2026-05-09 00:17 | -7.37760 | 112.78889 | 27 ft | 17 kts | 189° |
| 2026-05-09 00:17 | -7.37829 | 112.78812 | 28 ft | 17 kts | 277° |
| 2026-05-09 00:17 | -7.37808 | 112.78688 | 28 ft | 19 kts | 279° |
| 2026-05-09 00:18 | -7.37787 | 112.78557 | 28 ft | 20 kts | 279° |
| 2026-05-09 00:18 | -7.37765 | 112.78417 | 28 ft | 20 kts | 281° |
| 2026-05-09 00:18 | -7.37740 | 112.78274 | 28 ft | 21 kts | 279° |
| 2026-05-09 00:18 | -7.37717 | 112.78129 | 28 ft | 21 kts | 279° |
| 2026-05-09 00:19 | -7.37695 | 112.77980 | 29 ft | 22 kts | 278° |
| 2026-05-09 00:19 | -7.37673 | 112.77830 | 29 ft | 22 kts | 280° |
| 2026-05-09 00:19 | -7.37647 | 112.77679 | 29 ft | 22 kts | 279° |
| 2026-05-09 00:19 | -7.37621 | 112.77526 | 29 ft | 22 kts | 278° |
| 2026-05-09 00:20 | -7.37644 | 112.77388 | 29 ft | 21 kts | 206° |
| 2026-05-09 00:20 | -7.37787 | 112.77364 | 29 ft | 14 kts | 176° |
| 2026-05-09 00:20 | -7.37784 | 112.77386 | 29 ft | 6 kts | 50° |
| 2026-05-09 00:20 | -7.37780 | 112.77427 | 29 ft | 2 kts | 99° |
| 2026-05-09 00:21 | -7.37782 | 112.77437 | 29 ft | 3 kts | 99° |
| 2026-05-09 00:21 | -7.37786 | 112.77466 | 29 ft | 5 kts | 99° |
| 2026-05-09 00:21 | -7.37794 | 112.77512 | 29 ft | 9 kts | 99° |
| 2026-05-09 00:21 | -7.37843 | 112.77805 | 29 ft | 83 kts | 99° |
| 2026-05-09 00:22 | -7.37980 | 112.78664 | 29 ft | 159 kts | 98° |
| 2026-05-09 00:22 | -7.38146 | 112.79915 | 241 ft | 191 kts | 96° |
| 2026-05-09 00:22 | -7.38295 | 112.81265 | 795 ft | 200 kts | 96° |
| 2026-05-09 00:22 | -7.38416 | 112.82678 | 1479 ft | 204 kts | 94° |
| 2026-05-09 00:23 | -7.38522 | 112.84126 | 2257 ft | 211 kts | 94° |
| 2026-05-09 00:23 | -7.38693 | 112.85616 | 3115 ft | 215 kts | 97° |
| 2026-05-09 00:23 | -7.38707 | 112.87104 | 4132 ft | 209 kts | 77° |
| 2026-05-09 00:23 | -7.37985 | 112.88265 | 5334 ft | 195 kts | 27° |
| 2026-05-09 00:24 | -7.36723 | 112.88383 | 6411 ft | 187 kts | 343° |
| 2026-05-09 00:24 | -7.35483 | 112.87964 | 7214 ft | 197 kts | 346° |
| 2026-05-09 00:24 | -7.34024 | 112.87705 | 7528 ft | 226 kts | 358° |
| 2026-05-09 00:24 | -7.32359 | 112.87685 | 7818 ft | 255 kts | 2° |
| 2026-05-09 00:25 | -7.30492 | 112.87817 | 8049 ft | 281 kts | 6° |
| 2026-05-09 00:25 | -7.28462 | 112.87921 | 8310 ft | 301 kts | 1° |
| 2026-05-09 00:25 | -7.26308 | 112.87902 | 8559 ft | 316 kts | 359° |
| 2026-05-09 00:25 | -7.24055 | 112.87834 | 8776 ft | 329 kts | 359° |
| 2026-05-09 00:26 | -7.21718 | 112.87748 | 8988 ft | 340 kts | 358° |
| 2026-05-09 00:26 | -7.19378 | 112.87655 | 9339 ft | 343 kts | 358° |
| 2026-05-09 00:26 | -7.17001 | 112.87558 | 10074 ft | 333 kts | 358° |
| 2026-05-09 00:26 | -7.14746 | 112.87208 | 10855 ft | 326 kts | 340° |
| 2026-05-09 00:27 | -7.12886 | 112.85988 | 11518 ft | 325 kts | 313° |
| 2026-05-09 00:27 | -7.11782 | 112.84013 | 12119 ft | 326 kts | 285° |
| 2026-05-09 00:27 | -7.11371 | 112.81760 | 12713 ft | 328 kts | 277° |
| 2026-05-09 00:27 | -7.11087 | 112.79491 | 13305 ft | 330 kts | 277° |
| 2026-05-09 00:28 | -7.10771 | 112.77183 | 13858 ft | 333 kts | 278° |
| 2026-05-09 00:28 | -7.10418 | 112.74871 | 14382 ft | 335 kts | 278° |
| 2026-05-09 00:28 | -7.10042 | 112.72581 | 14902 ft | 338 kts | 279° |
| 2026-05-09 00:28 | -7.09641 | 112.70238 | 15436 ft | 340 kts | 279° |
| 2026-05-09 00:29 | -7.09234 | 112.67909 | 15955 ft | 342 kts | 279° |
| 2026-05-09 00:29 | -7.08814 | 112.65534 | 16475 ft | 345 kts | 279° |
| 2026-05-09 00:29 | -7.08388 | 112.63139 | 16995 ft | 348 kts | 279° |
| 2026-05-09 00:29 | -7.07958 | 112.60727 | 17517 ft | 351 kts | 279° |
| 2026-05-09 00:30 | -7.07523 | 112.58298 | 18045 ft | 353 kts | 279° |
| 2026-05-09 00:30 | -7.07090 | 112.55884 | 18501 ft | 356 kts | 278° |
| 2026-05-09 00:30 | -7.06644 | 112.53401 | 18946 ft | 359 kts | 278° |
| 2026-05-09 00:30 | -7.06201 | 112.50941 | 19389 ft | 361 kts | 278° |
| 2026-05-09 00:31 | -7.05752 | 112.48444 | 19825 ft | 363 kts | 278° |
| 2026-05-09 00:31 | -7.05300 | 112.45929 | 20266 ft | 366 kts | 278° |
| 2026-05-09 00:31 | -7.04850 | 112.43429 | 20704 ft | 368 kts | 278° |
| 2026-05-09 00:31 | -7.04391 | 112.40882 | 21133 ft | 370 kts | 278° |
| 2026-05-09 00:32 | -7.03952 | 112.38447 | 21537 ft | 372 kts | 278° |
| 2026-05-09 00:32 | -7.03486 | 112.35861 | 21947 ft | 375 kts | 278° |
| 2026-05-09 00:32 | -7.03018 | 112.33265 | 22350 ft | 377 kts | 278° |
| 2026-05-09 00:32 | -7.02535 | 112.30657 | 22732 ft | 379 kts | 280° |
| 2026-05-09 00:33 | -7.01789 | 112.28133 | 23092 ft | 383 kts | 288° |
| 2026-05-09 00:33 | -7.00831 | 112.25611 | 23439 ft | 386 kts | 289° |
| 2026-05-09 00:33 | -6.99828 | 112.23092 | 23727 ft | 388 kts | 290° |
| 2026-05-09 00:33 | -6.98816 | 112.20557 | 23996 ft | 390 kts | 290° |
| 2026-05-09 00:34 | -6.97805 | 112.18021 | 24267 ft | 392 kts | 290° |
| 2026-05-09 00:34 | -6.96780 | 112.15459 | 24534 ft | 394 kts | 291° |
| 2026-05-09 00:34 | -6.95533 | 112.12993 | 24782 ft | 397 kts | 300° |
| 2026-05-09 00:34 | -6.94068 | 112.10654 | 25033 ft | 399 kts | 302° |
| 2026-05-09 00:35 | -6.92540 | 112.08322 | 25277 ft | 400 kts | 302° |
| 2026-05-09 00:35 | -6.90996 | 112.05978 | 25510 ft | 402 kts | 302° |
| 2026-05-09 00:35 | -6.89447 | 112.03624 | 25739 ft | 403 kts | 302° |
| 2026-05-09 00:35 | -6.87897 | 112.01263 | 25966 ft | 404 kts | 302° |
| 2026-05-09 00:36 | -6.86347 | 111.98899 | 26186 ft | 406 kts | 302° |
| 2026-05-09 00:36 | -6.84791 | 111.96525 | 26386 ft | 407 kts | 302° |
| 2026-05-09 00:36 | -6.83246 | 111.94166 | 26587 ft | 409 kts | 303° |
| 2026-05-09 00:36 | -6.81679 | 111.91774 | 26782 ft | 410 kts | 303° |
| 2026-05-09 00:37 | -6.80099 | 111.89363 | 26974 ft | 411 kts | 303° |
| 2026-05-09 00:37 | -6.78532 | 111.86970 | 27146 ft | 412 kts | 303° |
| 2026-05-09 00:37 | -6.76941 | 111.84541 | 27314 ft | 414 kts | 303° |
| 2026-05-09 00:37 | -6.75346 | 111.82107 | 27474 ft | 415 kts | 303° |
| 2026-05-09 00:38 | -6.73774 | 111.79708 | 27620 ft | 417 kts | 303° |
| 2026-05-09 00:38 | -6.72169 | 111.77260 | 27767 ft | 418 kts | 303° |
| 2026-05-09 00:38 | -6.70571 | 111.74821 | 27933 ft | 419 kts | 303° |
| 2026-05-09 00:38 | -6.68964 | 111.72371 | 28078 ft | 420 kts | 303° |
| 2026-05-09 00:39 | -6.67353 | 111.69913 | 28212 ft | 421 kts | 303° |
| 2026-05-09 00:39 | -6.65736 | 111.67447 | 28352 ft | 422 kts | 303° |
| 2026-05-09 00:39 | -6.64135 | 111.65006 | 28478 ft | 423 kts | 303° |
| 2026-05-09 00:39 | -6.62508 | 111.62526 | 28615 ft | 424 kts | 303° |
| 2026-05-09 00:40 | -6.60898 | 111.60033 | 28731 ft | 424 kts | 303° |
| 2026-05-09 00:40 | -6.59309 | 111.57520 | 28845 ft | 425 kts | 302° |
| 2026-05-09 00:40 | -6.57774 | 111.55065 | 28976 ft | 426 kts | 302° |
| 2026-05-09 00:41 | -6.54615 | 111.49997 | 29176 ft | 428 kts | 302° |
| 2026-05-09 00:41 | -6.53030 | 111.47458 | 29279 ft | 429 kts | 302° |
| 2026-05-09 00:41 | -6.51438 | 111.44915 | 29388 ft | 429 kts | 302° |
| 2026-05-09 00:41 | -6.49847 | 111.42375 | 29515 ft | 429 kts | 302° |
| 2026-05-09 00:42 | -6.48265 | 111.39855 | 29655 ft | 429 kts | 302° |
| 2026-05-09 00:42 | -6.46676 | 111.37323 | 29808 ft | 428 kts | 303° |
| 2026-05-09 00:42 | -6.45087 | 111.34793 | 29936 ft | 428 kts | 303° |
| 2026-05-09 00:42 | -6.43497 | 111.32261 | 30073 ft | 428 kts | 303° |
| 2026-05-09 00:43 | -6.41904 | 111.29725 | 30181 ft | 428 kts | 302° |
| 2026-05-09 00:43 | -6.40330 | 111.27219 | 30302 ft | 427 kts | 303° |
| 2026-05-09 00:43 | -6.38742 | 111.24693 | 30419 ft | 427 kts | 303° |
| 2026-05-09 00:43 | -6.37151 | 111.22159 | 30544 ft | 427 kts | 303° |
| 2026-05-09 00:44 | -6.35565 | 111.19636 | 30670 ft | 427 kts | 302° |
| 2026-05-09 00:44 | -6.33977 | 111.17110 | 30793 ft | 426 kts | 303° |
| 2026-05-09 00:44 | -6.32406 | 111.14575 | 30920 ft | 426 kts | 300° |
| 2026-05-09 00:44 | -6.31093 | 111.11939 | 31034 ft | 427 kts | 292° |
| 2026-05-09 00:45 | -6.30144 | 111.09101 | 31149 ft | 427 kts | 283° |
| 2026-05-09 00:45 | -6.29651 | 111.06169 | 31278 ft | 426 kts | 274° |
| 2026-05-09 00:45 | -6.29502 | 111.03185 | 31423 ft | 426 kts | 271° |
| 2026-05-09 00:45 | -6.29465 | 111.00247 | 31558 ft | 425 kts | 270° |
| 2026-05-09 00:46 | -6.29484 | 110.97272 | 31706 ft | 424 kts | 269° |
| 2026-05-09 00:46 | -6.29525 | 110.94302 | 31847 ft | 424 kts | 269° |
| 2026-05-09 00:46 | -6.29568 | 110.91331 | 32007 ft | 423 kts | 269° |
| 2026-05-09 00:46 | -6.29604 | 110.88378 | 32156 ft | 422 kts | 269° |
| 2026-05-09 00:47 | -6.29632 | 110.85459 | 32294 ft | 422 kts | 269° |
| 2026-05-09 00:47 | -6.29653 | 110.82504 | 32452 ft | 421 kts | 269° |
| 2026-05-09 00:47 | -6.29669 | 110.79562 | 32603 ft | 420 kts | 269° |
| 2026-05-09 00:47 | -6.29683 | 110.76619 | 32769 ft | 419 kts | 269° |
| 2026-05-09 00:48 | -6.29695 | 110.73720 | 32922 ft | 419 kts | 269° |
| 2026-05-09 00:48 | -6.29708 | 110.70785 | 33076 ft | 418 kts | 269° |
| 2026-05-09 00:48 | -6.29720 | 110.67866 | 33228 ft | 418 kts | 269° |
| 2026-05-09 00:48 | -6.29732 | 110.64938 | 33391 ft | 417 kts | 269° |
| 2026-05-09 00:49 | -6.29745 | 110.62012 | 33543 ft | 417 kts | 269° |
| 2026-05-09 00:49 | -6.29758 | 110.59136 | 33689 ft | 416 kts | 269° |
| 2026-05-09 00:49 | -6.29770 | 110.56219 | 33834 ft | 416 kts | 269° |
| 2026-05-09 00:49 | -6.29783 | 110.53303 | 33951 ft | 416 kts | 269° |
| 2026-05-09 00:50 | -6.29807 | 110.47499 | 33908 ft | 416 kts | 269° |
| 2026-05-09 00:50 | -6.29830 | 110.41703 | 33904 ft | 416 kts | 269° |
| 2026-05-09 00:51 | -6.29853 | 110.35872 | 33905 ft | 416 kts | 269° |
| 2026-05-09 00:51 | -6.29872 | 110.30070 | 33904 ft | 417 kts | 269° |
| 2026-05-09 00:52 | -6.29890 | 110.24250 | 33905 ft | 417 kts | 269° |
| 2026-05-09 00:52 | -6.29907 | 110.18406 | 33903 ft | 417 kts | 269° |
| 2026-05-09 00:53 | -6.29924 | 110.12606 | 33902 ft | 417 kts | 269° |
| 2026-05-09 00:53 | -6.29938 | 110.07733 | 33900 ft | 417 kts | 269° |
| 2026-05-09 00:54 | -6.29957 | 110.00964 | 33900 ft | 417 kts | 269° |
| 2026-05-09 00:54 | -6.29972 | 109.95143 | 33898 ft | 417 kts | 269° |
| 2026-05-09 00:55 | -6.29984 | 109.90280 | 33904 ft | 417 kts | 269° |
| 2026-05-09 00:55 | -6.29998 | 109.84460 | 33902 ft | 417 kts | 269° |
| 2026-05-09 00:56 | -6.30011 | 109.78616 | 33902 ft | 417 kts | 269° |
| 2026-05-09 00:56 | -6.30024 | 109.72809 | 33903 ft | 417 kts | 269° |
| 2026-05-09 00:57 | -6.30036 | 109.67021 | 33904 ft | 417 kts | 269° |
| 2026-05-09 00:57 | -6.30047 | 109.61210 | 33904 ft | 417 kts | 269° |
| 2026-05-09 00:58 | -6.30058 | 109.55362 | 33906 ft | 417 kts | 269° |
| 2026-05-09 00:58 | -6.30068 | 109.49562 | 33905 ft | 417 kts | 269° |
| 2026-05-09 00:59 | -6.30078 | 109.43745 | 33906 ft | 417 kts | 269° |
| 2026-05-09 00:59 | -6.30086 | 109.37927 | 33906 ft | 417 kts | 269° |
| 2026-05-09 01:00 | -6.30096 | 109.32079 | 33911 ft | 417 kts | 269° |
| 2026-05-09 01:00 | -6.30118 | 109.26248 | 33912 ft | 417 kts | 269° |
| 2026-05-09 01:01 | -6.30142 | 109.20429 | 33915 ft | 417 kts | 269° |
| 2026-05-09 01:01 | -6.30165 | 109.14564 | 33914 ft | 418 kts | 269° |
| 2026-05-09 01:02 | -6.30188 | 109.08741 | 33798 ft | 422 kts | 269° |
| 2026-05-09 01:02 | -6.30200 | 109.05787 | 33536 ft | 419 kts | 269° |
| 2026-05-09 01:02 | -6.30211 | 109.02878 | 33265 ft | 410 kts | 269° |
| 2026-05-09 01:03 | -6.30221 | 109.00049 | 33018 ft | 405 kts | 269° |
| 2026-05-09 01:03 | -6.30232 | 108.97217 | 32769 ft | 402 kts | 270° |
| 2026-05-09 01:03 | -6.30242 | 108.94426 | 32526 ft | 400 kts | 270° |
| 2026-05-09 01:03 | -6.30252 | 108.91625 | 32285 ft | 399 kts | 270° |
| 2026-05-09 01:04 | -6.30262 | 108.88863 | 32044 ft | 398 kts | 270° |
| 2026-05-09 01:04 | -6.30271 | 108.86073 | 31803 ft | 396 kts | 270° |
| 2026-05-09 01:04 | -6.30281 | 108.83301 | 31571 ft | 395 kts | 270° |
| 2026-05-09 01:04 | -6.30290 | 108.80542 | 31336 ft | 393 kts | 270° |
| 2026-05-09 01:05 | -6.30299 | 108.77809 | 31106 ft | 392 kts | 270° |
| 2026-05-09 01:05 | -6.30308 | 108.75089 | 30875 ft | 390 kts | 270° |
| 2026-05-09 01:05 | -6.30326 | 108.69633 | 30416 ft | 387 kts | 270° |
| 2026-05-09 01:06 | -6.30334 | 108.66950 | 30194 ft | 386 kts | 270° |
| 2026-05-09 01:06 | -6.30342 | 108.64248 | 29958 ft | 384 kts | 270° |
| 2026-05-09 01:06 | -6.30350 | 108.61587 | 29714 ft | 383 kts | 270° |
| 2026-05-09 01:06 | -6.30358 | 108.58914 | 29439 ft | 376 kts | 270° |
| 2026-05-09 01:07 | -6.30366 | 108.56298 | 29140 ft | 369 kts | 270° |
| 2026-05-09 01:07 | -6.30373 | 108.53735 | 28901 ft | 362 kts | 269° |
| 2026-05-09 01:07 | -6.30380 | 108.51255 | 28728 ft | 353 kts | 269° |
| 2026-05-09 01:07 | -6.30386 | 108.48813 | 28512 ft | 347 kts | 269° |
| 2026-05-09 01:08 | -6.30392 | 108.46404 | 28223 ft | 343 kts | 269° |
| 2026-05-09 01:08 | -6.30399 | 108.44010 | 27913 ft | 340 kts | 269° |
| 2026-05-09 01:08 | -6.30405 | 108.41637 | 27595 ft | 337 kts | 269° |
| 2026-05-09 01:08 | -6.30411 | 108.39316 | 27286 ft | 335 kts | 269° |
| 2026-05-09 01:09 | -6.30417 | 108.36981 | 26981 ft | 333 kts | 269° |
| 2026-05-09 01:09 | -6.30385 | 108.34659 | 26674 ft | 331 kts | 274° |
| 2026-05-09 01:09 | -6.30032 | 108.32369 | 26360 ft | 330 kts | 282° |
| 2026-05-09 01:09 | -6.29508 | 108.30147 | 26069 ft | 328 kts | 283° |
| 2026-05-09 01:10 | -6.28949 | 108.27924 | 25764 ft | 327 kts | 283° |
| 2026-05-09 01:10 | -6.28389 | 108.25711 | 25466 ft | 325 kts | 283° |
| 2026-05-09 01:10 | -6.27838 | 108.23529 | 25165 ft | 324 kts | 283° |
| 2026-05-09 01:10 | -6.27283 | 108.21321 | 24897 ft | 322 kts | 283° |
| 2026-05-09 01:11 | -6.26735 | 108.19140 | 24614 ft | 321 kts | 283° |
| 2026-05-09 01:11 | -6.26197 | 108.16993 | 24340 ft | 319 kts | 283° |
| 2026-05-09 01:11 | -6.25653 | 108.14819 | 24061 ft | 318 kts | 282° |
| 2026-05-09 01:11 | -6.25119 | 108.12687 | 23791 ft | 316 kts | 282° |
| 2026-05-09 01:12 | -6.24581 | 108.10538 | 23526 ft | 315 kts | 282° |
| 2026-05-09 01:12 | -6.24051 | 108.08422 | 23223 ft | 314 kts | 282° |
| 2026-05-09 01:12 | -6.23517 | 108.06288 | 22896 ft | 313 kts | 282° |
| 2026-05-09 01:12 | -6.22986 | 108.04167 | 22593 ft | 311 kts | 282° |
| 2026-05-09 01:13 | -6.22463 | 108.02078 | 22297 ft | 310 kts | 282° |
| 2026-05-09 01:13 | -6.21938 | 107.99983 | 22007 ft | 309 kts | 282° |
| 2026-05-09 01:13 | -6.21445 | 107.97883 | 21704 ft | 307 kts | 277° |
| 2026-05-09 01:13 | -6.21230 | 107.95752 | 21423 ft | 304 kts | 271° |
| 2026-05-09 01:14 | -6.21160 | 107.93658 | 21140 ft | 303 kts | 269° |
| 2026-05-09 01:14 | -6.21116 | 107.91546 | 20856 ft | 301 kts | 269° |
| 2026-05-09 01:14 | -6.21074 | 107.89435 | 20593 ft | 300 kts | 269° |
| 2026-05-09 01:14 | -6.21030 | 107.87336 | 20328 ft | 299 kts | 269° |
| 2026-05-09 01:15 | -6.20985 | 107.85271 | 20060 ft | 298 kts | 269° |
| 2026-05-09 01:15 | -6.20939 | 107.83185 | 19796 ft | 297 kts | 270° |
| 2026-05-09 01:15 | -6.20892 | 107.81098 | 19536 ft | 296 kts | 270° |
| 2026-05-09 01:15 | -6.20845 | 107.79063 | 19280 ft | 295 kts | 270° |
| 2026-05-09 01:16 | -6.20797 | 107.76992 | 19037 ft | 294 kts | 270° |
| 2026-05-09 01:16 | -6.20750 | 107.74957 | 18803 ft | 293 kts | 270° |
| 2026-05-09 01:16 | -6.20703 | 107.72913 | 18552 ft | 292 kts | 270° |
| 2026-05-09 01:17 | -6.20608 | 107.68838 | 18037 ft | 290 kts | 270° |
| 2026-05-09 01:17 | -6.20562 | 107.66837 | 17804 ft | 290 kts | 270° |
| 2026-05-09 01:17 | -6.20514 | 107.64787 | 17327 ft | 296 kts | 270° |
| 2026-05-09 01:17 | -6.20465 | 107.62690 | 16843 ft | 302 kts | 270° |
| 2026-05-09 01:18 | -6.20413 | 107.60592 | 16369 ft | 306 kts | 270° |
| 2026-05-09 01:18 | -6.20359 | 107.58435 | 15889 ft | 310 kts | 271° |
| 2026-05-09 01:18 | -6.20305 | 107.56251 | 15426 ft | 313 kts | 271° |
| 2026-05-09 01:18 | -6.20250 | 107.54065 | 14950 ft | 312 kts | 271° |
| 2026-05-09 01:19 | -6.20196 | 107.51922 | 14504 ft | 312 kts | 271° |
| 2026-05-09 01:19 | -6.20141 | 107.49750 | 14063 ft | 314 kts | 271° |
| 2026-05-09 01:19 | -6.20085 | 107.47539 | 13603 ft | 316 kts | 271° |
| 2026-05-09 01:19 | -6.20029 | 107.45328 | 13099 ft | 317 kts | 271° |
| 2026-05-09 01:20 | -6.19974 | 107.43125 | 12608 ft | 317 kts | 271° |
| 2026-05-09 01:20 | -6.19918 | 107.40908 | 12123 ft | 317 kts | 271° |
| 2026-05-09 01:20 | -6.19861 | 107.38675 | 11635 ft | 317 kts | 272° |
| 2026-05-09 01:20 | -6.19806 | 107.36491 | 11122 ft | 317 kts | 272° |
| 2026-05-09 01:21 | -6.19749 | 107.34236 | 10345 ft | 325 kts | 272° |
| 2026-05-09 01:21 | -6.19776 | 107.31925 | 9512 ft | 332 kts | 270° |
| 2026-05-09 01:21 | -6.19734 | 107.29604 | 8664 ft | 337 kts | 272° |
| 2026-05-09 01:21 | -6.19647 | 107.27237 | 7814 ft | 340 kts | 272° |
| 2026-05-09 01:22 | -6.19559 | 107.24872 | 7001 ft | 341 kts | 272° |
| 2026-05-09 01:22 | -6.19472 | 107.22479 | 6183 ft | 342 kts | 272° |
| 2026-05-09 01:22 | -6.19386 | 107.20079 | 5331 ft | 342 kts | 272° |
| 2026-05-09 01:22 | -6.19301 | 107.17721 | 4515 ft | 341 kts | 272° |
| 2026-05-09 01:23 | -6.19210 | 107.15369 | 4092 ft | 327 kts | 272° |
| 2026-05-09 01:23 | -6.19092 | 107.13147 | 3840 ft | 311 kts | 274° |
| 2026-05-09 01:23 | -6.18936 | 107.11030 | 3628 ft | 294 kts | 275° |
| 2026-05-09 01:23 | -6.18745 | 107.09079 | 3404 ft | 275 kts | 276° |
| 2026-05-09 01:24 | -6.18628 | 107.07213 | 3210 ft | 260 kts | 265° |
| 2026-05-09 01:24 | -6.19051 | 107.05495 | 3032 ft | 248 kts | 244° |
| 2026-05-09 01:24 | -6.20078 | 107.04149 | 2827 ft | 241 kts | 216° |
| 2026-05-09 01:24 | -6.21555 | 107.03500 | 2617 ft | 233 kts | 186° |
| 2026-05-09 01:25 | -6.23117 | 107.03710 | 2386 ft | 223 kts | 152° |
| 2026-05-09 01:25 | -6.24241 | 107.04721 | 2158 ft | 217 kts | 117° |
| 2026-05-09 01:25 | -6.24567 | 107.06178 | 1965 ft | 216 kts | 89° |
| 2026-05-09 01:25 | -6.24439 | 107.07679 | 1834 ft | 218 kts | 80° |
| 2026-05-09 01:26 | -6.24048 | 107.09143 | 1768 ft | 216 kts | 67° |
| 2026-05-09 01:26 | -6.23228 | 107.10410 | 1769 ft | 217 kts | 45° |
| 2026-05-09 01:26 | -6.21944 | 107.11154 | 1766 ft | 218 kts | 13° |
| 2026-05-09 01:26 | -6.20447 | 107.11047 | 1820 ft | 220 kts | 336° |
| 2026-05-09 01:27 | -6.19237 | 107.10051 | 1979 ft | 230 kts | 302° |
| 2026-05-09 01:27 | -6.18873 | 107.08601 | 1979 ft | 215 kts | 267° |
| 2026-05-09 01:27 | -6.19074 | 107.07113 | 1996 ft | 214 kts | 259° |
| 2026-05-09 01:27 | -6.19345 | 107.05713 | 1983 ft | 194 kts | 259° |
| 2026-05-09 01:28 | -6.19615 | 107.04445 | 1995 ft | 180 kts | 257° |
| 2026-05-09 01:28 | -6.19962 | 107.03257 | 1993 ft | 173 kts | 245° |
| 2026-05-09 01:28 | -6.20485 | 107.02219 | 2002 ft | 162 kts | 241° |
| 2026-05-09 01:28 | -6.20999 | 107.01241 | 1993 ft | 158 kts | 242° |
| 2026-05-09 01:29 | -6.21496 | 107.00254 | 1990 ft | 158 kts | 243° |
| 2026-05-09 01:29 | -6.21978 | 106.99262 | 1992 ft | 158 kts | 244° |
| 2026-05-09 01:29 | -6.22449 | 106.98269 | 1991 ft | 157 kts | 244° |
| 2026-05-09 01:29 | -6.22915 | 106.97272 | 1817 ft | 158 kts | 244° |
| 2026-05-09 01:30 | -6.23357 | 106.96318 | 1678 ft | 156 kts | 245° |
| 2026-05-09 01:30 | -6.23816 | 106.95325 | 1527 ft | 155 kts | 244° |
| 2026-05-09 01:30 | -6.24267 | 106.94344 | 1383 ft | 155 kts | 245° |
| 2026-05-09 01:30 | -6.24720 | 106.93357 | 1231 ft | 154 kts | 245° |
| 2026-05-09 01:31 | -6.25162 | 106.92395 | 1100 ft | 154 kts | 245° |
| 2026-05-09 01:31 | -6.25611 | 106.91413 | 964 ft | 153 kts | 245° |
| 2026-05-09 01:31 | -6.26035 | 106.90489 | 873 ft | 155 kts | 244° |
| 2026-05-09 01:31 | -6.26497 | 106.89481 | 1335 ft | 160 kts | 245° |
| 2026-05-09 01:32 | -6.26968 | 106.88451 | 1969 ft | 173 kts | 244° |
| 2026-05-09 01:32 | -6.27507 | 106.87271 | 2414 ft | 194 kts | 245° |
| 2026-05-09 01:32 | -6.28086 | 106.86007 | 2825 ft | 216 kts | 245° |
| 2026-05-09 01:32 | -6.28754 | 106.84566 | 3443 ft | 231 kts | 243° |
| 2026-05-09 01:33 | -6.29816 | 106.83344 | 3849 ft | 239 kts | 208° |
| 2026-05-09 01:33 | -6.31377 | 106.83000 | 3986 ft | 232 kts | 169° |
| 2026-05-09 01:33 | -6.32827 | 106.83620 | 3997 ft | 229 kts | 146° |
| 2026-05-09 01:33 | -6.34168 | 106.84503 | 3975 ft | 230 kts | 146° |
| 2026-05-09 01:34 | -6.35535 | 106.85348 | 3997 ft | 231 kts | 147° |
| 2026-05-09 01:34 | -6.36858 | 106.86274 | 3987 ft | 230 kts | 140° |
| 2026-05-09 01:34 | -6.37911 | 106.87461 | 3992 ft | 227 kts | 115° |
| 2026-05-09 01:34 | -6.38302 | 106.88958 | 3993 ft | 226 kts | 93° |
| 2026-05-09 01:35 | -6.38336 | 106.90547 | 3995 ft | 227 kts | 89° |
| 2026-05-09 01:35 | -6.38302 | 106.92147 | 3998 ft | 228 kts | 88° |
| 2026-05-09 01:35 | -6.38265 | 106.93751 | 3988 ft | 228 kts | 89° |
| 2026-05-09 01:35 | -6.38231 | 106.95247 | 3984 ft | 228 kts | 87° |
| 2026-05-09 01:36 | -6.38015 | 106.96825 | 4001 ft | 228 kts | 73° |
| 2026-05-09 01:36 | -6.37402 | 106.98295 | 3999 ft | 228 kts | 63° |
| 2026-05-09 01:36 | -6.36621 | 106.99694 | 3991 ft | 228 kts | 60° |
| 2026-05-09 01:36 | -6.35827 | 107.01051 | 3994 ft | 228 kts | 59° |
| 2026-05-09 01:37 | -6.35017 | 107.02432 | 3995 ft | 228 kts | 60° |
| 2026-05-09 01:37 | -6.34483 | 107.03350 | 3994 ft | 228 kts | 60° |
| 2026-05-09 01:37 | -6.33419 | 107.05184 | 3989 ft | 228 kts | 60° |
| 2026-05-09 01:37 | -6.32859 | 107.06093 | 3992 ft | 228 kts | 53° |
| 2026-05-09 01:38 | -6.31287 | 107.07473 | 3994 ft | 228 kts | 25° |
| 2026-05-09 01:38 | -6.30276 | 107.07771 | 3982 ft | 229 kts | 6° |
| 2026-05-09 01:38 | -6.28187 | 107.07437 | 3931 ft | 233 kts | 343° |
| 2026-05-09 01:38 | -6.27163 | 107.07090 | 3737 ft | 234 kts | 341° |
| 2026-05-09 01:39 | -6.25626 | 107.06523 | 3366 ft | 236 kts | 341° |
| 2026-05-09 01:39 | -6.24072 | 107.05941 | 2988 ft | 238 kts | 340° |
| 2026-05-09 01:39 | -6.22539 | 107.05312 | 2601 ft | 236 kts | 331° |
| 2026-05-09 01:39 | -6.21415 | 107.04204 | 2221 ft | 230 kts | 295° |
| 2026-05-09 01:40 | -6.21093 | 107.02650 | 1958 ft | 225 kts | 270° |
| 2026-05-09 01:40 | -6.21250 | 107.01090 | 1977 ft | 227 kts | 257° |
| 2026-05-09 01:40 | -6.21794 | 106.99629 | 1983 ft | 219 kts | 243° |
| 2026-05-09 01:40 | -6.22476 | 106.98265 | 1802 ft | 216 kts | 244° |
| 2026-05-09 01:41 | -6.23083 | 106.96915 | 1521 ft | 209 kts | 245° |
| 2026-05-09 01:41 | -6.23672 | 106.95628 | 1241 ft | 195 kts | 245° |
| 2026-05-09 01:41 | -6.24219 | 106.94440 | 1014 ft | 181 kts | 245° |
| 2026-05-09 01:41 | -6.24740 | 106.93300 | 789 ft | 176 kts | 244° |
| 2026-05-09 01:42 | -6.25237 | 106.92213 | 575 ft | 172 kts | 244° |
| 2026-05-09 01:42 | -6.25738 | 106.91122 | 324 ft | 170 kts | 243° |
| 2026-05-09 01:42 | -6.26242 | 106.90057 | 145 ft | 169 kts | 243° |
| 2026-05-09 01:42 | -6.26692 | 106.89112 | 104 ft | 133 kts | 242° |
| 2026-05-09 01:43 | -6.27008 | 106.88460 | 100 ft | 88 kts | 252° |
| 2026-05-09 01:43 | -6.27173 | 106.88019 | 102 ft | 36 kts | 248° |
| 2026-05-09 01:43 | -6.27209 | 106.87907 | 104 ft | 5 kts | 166° |
| 2026-05-09 01:43 | -6.27209 | 106.87916 | 104 ft | 1 kts | 92° |
| 2026-05-09 01:44 | -6.27203 | 106.87925 | 104 ft | 4 kts | 64° |
| 2026-05-09 01:44 | -6.27186 | 106.87962 | 103 ft | 8 kts | 65° |
| 2026-05-09 01:44 | -6.27159 | 106.88023 | 102 ft | 11 kts | 65° |
| 2026-05-09 01:44 | -6.27123 | 106.88102 | 102 ft | 14 kts | 65° |
| 2026-05-09 01:45 | -6.27078 | 106.88203 | 101 ft | 17 kts | 66° |
| 2026-05-09 01:45 | -6.27025 | 106.88320 | 101 ft | 20 kts | 66° |
| 2026-05-09 01:45 | -6.26965 | 106.88451 | 100 ft | 21 kts | 65° |
| 2026-05-09 01:45 | -6.26902 | 106.88590 | 101 ft | 22 kts | 65° |
| 2026-05-09 01:46 | -6.26838 | 106.88731 | 103 ft | 23 kts | 66° |
| 2026-05-09 01:46 | -6.26754 | 106.88858 | 103 ft | 21 kts | 22° |
| 2026-05-09 01:46 | -6.26641 | 106.88827 | 104 ft | 11 kts | 336° |
| 2026-05-09 01:46 | -6.26615 | 106.88816 | 102 ft | 2 kts | 338° |
| 2026-05-09 01:47 | -6.26613 | 106.88815 | 103 ft | 0 kts | 338° |
| 2026-05-09 01:47 | -6.26602 | 106.88812 | 104 ft | 3 kts | 347° |
| 2026-05-09 01:48 | -6.26580 | 106.88821 | 102 ft | 4 kts | 35° |
| 2026-05-09 01:48 | -6.26561 | 106.88851 | 103 ft | 6 kts | 63° |
| 2026-05-09 01:48 | -6.26539 | 106.88895 | 102 ft | 8 kts | 65° |
| 2026-05-09 01:48 | -6.26515 | 106.88948 | 104 ft | 9 kts | 65° |
| 2026-05-09 01:49 | -6.26496 | 106.89000 | 103 ft | 5 kts | 98° |
| 2026-05-09 01:49 | -6.26502 | 106.89036 | 102 ft | 6 kts | 100° |
| 2026-05-09 01:49 | -6.26514 | 106.89081 | 104 ft | 7 kts | 110° |
| 2026-05-09 01:49 | -6.26533 | 106.89128 | 103 ft | 7 kts | 112° |
| 2026-05-09 01:50 | -6.26554 | 106.89180 | 104 ft | 9 kts | 112° |
| 2026-05-09 01:50 | -6.26577 | 106.89246 | 103 ft | 11 kts | 102° |
| 2026-05-09 01:50 | -6.26561 | 106.89327 | 105 ft | 13 kts | 66° |
| 2026-05-09 01:50 | -6.26519 | 106.89420 | 104 ft | 17 kts | 66° |
| 2026-05-09 01:51 | -6.26464 | 106.89538 | 102 ft | 20 kts | 66° |
| 2026-05-09 01:51 | -6.26404 | 106.89671 | 103 ft | 22 kts | 64° |
| 2026-05-09 01:51 | -6.26322 | 106.89798 | 103 ft | 20 kts | 25° |
| 2026-05-09 01:51 | -6.26206 | 106.89822 | 102 ft | 17 kts | 24° |
| 2026-05-09 01:52 | -6.26105 | 106.89871 | 103 ft | 15 kts | 6° |
| 2026-05-09 01:52 | -6.26003 | 106.89843 | 102 ft | 15 kts | 341° |
| 2026-05-09 01:52 | -6.25933 | 106.89821 | 102 ft | 0 kts | 346° |
| 2026-05-09 01:53 | -6.25909 | 106.89815 | 102 ft | 7 kts | 347° |
| 2026-05-09 01:53 | -6.25847 | 106.89800 | 103 ft | 11 kts | 345° |
| 2026-05-09 01:54 | -6.25758 | 106.89775 | 102 ft | 15 kts | 343° |
| 2026-05-09 01:54 | -6.25649 | 106.89740 | 102 ft | 18 kts | 345° |
| 2026-05-09 01:54 | -6.25526 | 106.89711 | 102 ft | 19 kts | 346° |
| 2026-05-09 01:54 | -6.25449 | 106.89688 | 102 ft | 1 kts | 340° |
| 2026-05-09 01:55 | -6.25436 | 106.89681 | 102 ft | 3 kts | 328° |
| 2026-05-09 01:55 | -6.25415 | 106.89677 | 102 ft | 4 kts | 347° |
| 2026-05-09 01:55 | -6.25380 | 106.89681 | 104 ft | 6 kts | 23° |
| 2026-05-09 01:55 | -6.25356 | 106.89717 | 102 ft | 7 kts | 77° |
| 2026-05-09 01:56 | -6.25374 | 106.89755 | 102 ft | 6 kts | 144° |
| 2026-05-09 01:56 | -6.25414 | 106.89770 | 102 ft | 6 kts | 162° |
| 2026-05-09 01:56 | -6.25460 | 106.89784 | 102 ft | 7 kts | 163° |
| 2026-05-09 01:56 | -6.25508 | 106.89799 | 103 ft | 8 kts | 163° |
| 2026-05-09 01:57 | -6.25560 | 106.89814 | 103 ft | 8 kts | 163° |
| 2026-05-09 01:57 | -6.25616 | 106.89831 | 102 ft | 9 kts | 163° |
| 2026-05-09 01:57 | -6.25676 | 106.89849 | 102 ft | 9 kts | 163° |
| 2026-05-09 01:57 | -6.25737 | 106.89866 | 102 ft | 9 kts | 166° |
| 2026-05-09 01:58 | -6.25791 | 106.89879 | 102 ft | 9 kts | 166° |
| 2026-05-09 01:58 | -6.25854 | 106.89897 | 102 ft | 9 kts | 166° |
| 2026-05-09 01:58 | -6.25917 | 106.89912 | 103 ft | 9 kts | 165° |
| 2026-05-09 01:58 | -6.25980 | 106.89930 | 103 ft | 9 kts | 164° |
| 2026-05-09 01:59 | -6.26013 | 106.89976 | 102 ft | 8 kts | 94° |
| 2026-05-09 01:59 | -6.26015 | 106.90021 | 104 ft | 0 kts | 94° |
| 2026-05-09 01:59 | -6.26015 | 106.90022 | 104 ft | 0 kts | 94° |